createdAt,value
2022-08-07T00:00:32.266Z,14.90
2022-08-07T00:03:00.568Z,14.70
2022-08-07T00:05:30.392Z,14.60
2022-08-07T00:08:00.089Z,14.60
2022-08-07T00:10:30.883Z,14.60
2022-08-07T00:13:09.944Z,14.50
2022-08-07T00:15:51.710Z,14.50
2022-08-07T00:18:25.116Z,14.50
2022-08-07T00:21:03.497Z,14.40
2022-08-07T00:23:39.552Z,14.30
2022-08-07T00:26:13.084Z,14.30
2022-08-07T00:28:56.846Z,14.20
2022-08-07T00:31:37.390Z,14.20
2022-08-07T00:34:08.647Z,14.20
2022-08-07T00:36:38.512Z,14.20
2022-08-07T00:39:16.103Z,14.10
2022-08-07T00:41:53.792Z,14.10
2022-08-07T00:44:31.647Z,14.20
2022-08-07T00:47:06.480Z,14.10
2022-08-07T00:50:19.863Z,14.10
2022-08-07T00:52:33.283Z,14.20
2022-08-07T00:55:04.978Z,14.00
2022-08-07T00:57:38.376Z,14.00
2022-08-07T01:00:23.442Z,14.00
2022-08-07T01:02:52.007Z,13.80
2022-08-07T01:05:20.420Z,13.90
2022-08-07T01:07:52.724Z,13.90
2022-08-07T01:10:23.034Z,13.90
2022-08-07T01:12:54.703Z,13.80
2022-08-07T01:15:36.052Z,13.70
2022-08-07T01:18:18.290Z,13.70
2022-08-07T01:20:59.241Z,13.70
2022-08-07T01:23:36.340Z,13.80
2022-08-07T01:26:11.815Z,13.70
2022-08-07T01:28:45.815Z,13.70
2022-08-07T01:31:18.115Z,13.70
2022-08-07T01:33:55.974Z,13.70
2022-08-07T01:36:33.231Z,13.80
2022-08-07T01:39:10.044Z,13.80
2022-08-07T01:42:07.133Z,13.80
2022-08-07T01:44:31.369Z,13.90
2022-08-07T01:47:01.205Z,13.80
2022-08-07T01:49:43.950Z,13.80
2022-08-07T01:52:15.443Z,13.80
2022-08-07T01:54:46.085Z,13.80
2022-08-07T01:57:24.813Z,13.90
2022-08-07T02:00:02.120Z,13.90
2022-08-07T02:03:19.418Z,14.00
2022-08-07T02:06:02.396Z,14.00
2022-08-07T02:08:41.738Z,14.00
2022-08-07T02:11:31.039Z,14.00
2022-08-07T02:14:03.974Z,14.00
2022-08-07T02:16:37.446Z,13.90
2022-08-07T02:20:07.359Z,13.90
2022-08-07T02:21:59.745Z,13.90
2022-08-07T02:24:29.913Z,14.00
2022-08-07T02:27:02.682Z,14.00
2022-08-07T02:29:34.388Z,14.00
2022-08-07T02:32:07.048Z,14.00
2022-08-07T02:34:51.030Z,14.00
2022-08-07T02:37:24.766Z,13.90
2022-08-07T02:40:11.525Z,14.00
2022-08-07T02:42:48.014Z,14.10
2022-08-07T02:45:58.938Z,14.00
2022-08-07T02:48:09.962Z,14.10
2022-08-07T02:50:43.166Z,14.00
2022-08-07T02:53:17.999Z,14.00
2022-08-07T02:56:03.389Z,14.00
2022-08-07T02:58:37.003Z,14.00
2022-08-07T03:01:16.007Z,14.10
2022-08-07T03:03:50.389Z,13.90
2022-08-07T03:06:33.153Z,13.80
2022-08-07T03:09:05.250Z,13.80
2022-08-07T03:11:38.493Z,13.80
2022-08-07T03:14:07.897Z,13.80
2022-08-07T03:16:36.012Z,13.90
2022-08-07T03:19:07.582Z,13.90
2022-08-07T03:21:37.289Z,13.90
2022-08-07T03:24:20.966Z,13.90
2022-08-07T03:26:58.105Z,13.90
2022-08-07T03:29:49.281Z,13.90
2022-08-07T03:32:58.371Z,13.90
2022-08-07T03:35:43.899Z,14.00
2022-08-07T03:38:21.025Z,14.00
2022-08-07T03:40:57.208Z,14.10
2022-08-07T03:43:32.095Z,14.10
2022-08-07T03:46:03.968Z,14.10
2022-08-07T03:48:45.492Z,14.20
2022-08-07T03:51:47.510Z,14.20
2022-08-07T03:54:35.840Z,14.20
2022-08-07T03:57:09.231Z,14.30
2022-08-07T03:59:46.555Z,14.30
2022-08-07T04:02:29.442Z,14.30
2022-08-07T04:04:58.426Z,14.20
2022-08-07T04:07:36.258Z,14.30
2022-08-07T04:10:15.745Z,14.20
2022-08-07T04:15:49.431Z,14.20
2022-08-07T04:18:57.003Z,14.30
2022-08-07T04:21:07.239Z,14.30
2022-08-07T04:23:43.891Z,14.30
2022-08-07T04:26:23.683Z,14.20
2022-08-07T04:28:56.632Z,14.20
2022-08-07T04:31:39.294Z,14.20
2022-08-07T04:34:16.602Z,14.20
2022-08-07T04:36:45.331Z,14.20
2022-08-07T04:39:17.616Z,14.20
2022-08-07T04:41:50.315Z,14.20
2022-08-07T04:44:19.899Z,14.20
2022-08-07T04:47:08.710Z,14.20
2022-08-07T04:50:04.829Z,14.20
2022-08-07T04:52:51.829Z,14.20
2022-08-07T04:58:15.666Z,14.20
2022-08-07T04:58:49.753Z,14.20
2022-08-07T05:02:09.011Z,14.20
2022-08-07T05:04:55.759Z,14.30
2022-08-07T05:07:48.228Z,14.30
2022-08-07T05:10:35.270Z,14.30
2022-08-07T05:14:55.032Z,14.30
2022-08-07T05:16:30.331Z,14.40
2022-08-07T05:19:03.718Z,14.40
2022-08-07T05:21:58.963Z,14.30
2022-08-07T05:24:24.925Z,14.30
2022-08-07T05:27:00.081Z,14.30
2022-08-07T05:29:39.047Z,14.30
2022-08-07T05:32:20.987Z,14.40
2022-08-07T05:34:50.647Z,14.50
2022-08-07T05:37:25.354Z,14.60
2022-08-07T05:40:12.763Z,14.60
2022-08-07T05:42:55.893Z,14.70
2022-08-07T05:45:47.560Z,14.70
2022-08-07T05:48:15.372Z,14.80
2022-08-07T05:50:47.532Z,14.90
2022-08-07T05:54:12.815Z,14.90
2022-08-07T05:56:10.060Z,15.00
2022-08-07T05:58:49.461Z,15.00
2022-08-07T06:01:27.542Z,14.90
2022-08-07T06:04:07.083Z,14.90
2022-08-07T06:06:45.857Z,14.90
2022-08-07T06:09:15.388Z,14.90
2022-08-07T06:11:46.947Z,14.90
2022-08-07T06:14:20.764Z,14.90
2022-08-07T06:16:55.870Z,14.90
2022-08-07T06:19:52.192Z,14.90
2022-08-07T06:22:23.482Z,15.00
2022-08-07T06:25:01.826Z,15.10
2022-08-07T06:28:00.098Z,15.10
2022-08-07T06:30:24.101Z,15.10
2022-08-07T06:32:52.183Z,15.20
2022-08-07T06:35:20.083Z,15.20
2022-08-07T06:37:53.019Z,15.30
2022-08-07T06:40:22.776Z,15.30
2022-08-07T06:42:53.443Z,15.30
2022-08-07T06:45:48.532Z,15.20
2022-08-07T06:48:16.358Z,15.20
2022-08-07T06:50:58.824Z,15.20
2022-08-07T06:55:29.876Z,15.40
2022-08-07T06:56:48.705Z,15.50
2022-08-07T07:00:15.098Z,15.50
2022-08-07T07:02:54.313Z,15.60
2022-08-07T07:06:05.138Z,15.60
2022-08-07T07:08:18.548Z,15.60
2022-08-07T07:10:56.618Z,15.70
2022-08-07T07:13:56.498Z,15.80
2022-08-07T07:16:27.608Z,15.90
2022-08-07T07:19:11.231Z,15.90
2022-08-07T07:22:05.121Z,15.90
2022-08-07T07:24:43.065Z,16.10
2022-08-07T07:27:18.508Z,16.20
2022-08-07T07:30:07.581Z,16.20
2022-08-07T07:32:40.461Z,16.30
2022-08-07T07:35:11.767Z,16.30
2022-08-07T07:37:47.377Z,16.30
2022-08-07T07:40:26.055Z,16.20
2022-08-07T07:42:56.943Z,16.20
2022-08-07T07:46:37.966Z,16.30
2022-08-07T07:48:24.066Z,16.40
2022-08-07T07:51:07.827Z,16.50
2022-08-07T07:53:52.533Z,16.60
2022-08-07T07:56:29.701Z,16.70
2022-08-07T07:59:02.925Z,16.70
2022-08-07T08:02:02.212Z,16.80
2022-08-07T08:04:25.444Z,16.80
2022-08-07T08:06:54.754Z,16.90
2022-08-07T08:09:29.259Z,17.00
2022-08-07T08:12:02.986Z,17.00
2022-08-07T08:14:36.114Z,17.00
2022-08-07T08:17:55.334Z,17.10
2022-08-07T08:20:18.752Z,17.10
2022-08-07T08:23:14.290Z,17.10
2022-08-07T08:26:08.189Z,17.20
2022-08-07T08:28:43.313Z,17.10
2022-08-07T08:31:18.316Z,17.10
2022-08-07T08:33:59.772Z,17.10
2022-08-07T08:36:31.973Z,17.20
2022-08-07T08:39:04.173Z,17.30
2022-08-07T08:42:20.520Z,17.50
2022-08-07T08:45:26.680Z,17.70
2022-08-07T08:48:15.487Z,18.00
2022-08-07T08:50:51.620Z,18.30
2022-08-07T08:53:53.753Z,18.40
2022-08-07T08:56:30.437Z,18.40
2022-08-07T08:59:48.430Z,18.50
2022-08-07T09:02:36.784Z,18.60
2022-08-07T09:05:17.552Z,18.70
2022-08-07T09:07:57.958Z,18.70
2022-08-07T09:10:31.743Z,18.70
2022-08-07T09:13:37.073Z,18.80
2022-08-07T09:16:23.678Z,19.00
2022-08-07T09:19:53.079Z,19.00
2022-08-07T09:24:29.344Z,19.00
2022-08-07T09:25:21.703Z,18.90
2022-08-07T09:28:03.019Z,18.90
2022-08-07T09:30:54.257Z,19.00
2022-08-07T09:34:04.097Z,19.20
2022-08-07T09:36:42.944Z,19.30
2022-08-07T09:39:54.796Z,19.50
2022-08-07T09:42:22.915Z,19.60
2022-08-07T09:47:27.561Z,19.60
2022-08-07T09:48:29.973Z,19.70
2022-08-07T09:52:16.158Z,19.80
2022-08-07T09:54:41.246Z,19.70
2022-08-07T09:57:17.645Z,19.80
2022-08-07T10:00:09.175Z,19.80
2022-08-07T10:04:03.894Z,20.00
2022-08-07T10:06:25.241Z,20.10
2022-08-07T10:09:16.649Z,20.10
2022-08-07T10:12:10.532Z,20.50
2022-08-07T10:15:05.315Z,20.30
2022-08-07T10:18:00.975Z,20.00
2022-08-07T10:20:39.740Z,20.10
2022-08-07T10:24:05.506Z,19.90
2022-08-07T10:27:12.817Z,19.90
2022-08-07T10:30:12.323Z,20.00
2022-08-07T10:33:15.399Z,20.40
2022-08-07T10:36:17.113Z,20.40
2022-08-07T10:39:06.134Z,20.60
2022-08-07T10:41:57.714Z,20.40
2022-08-07T10:44:57.431Z,20.40
2022-08-07T10:47:52.744Z,20.50
2022-08-07T10:50:28.177Z,20.30
2022-08-07T10:53:08.003Z,20.50
2022-08-07T10:55:57.462Z,20.40
2022-08-07T10:59:21.417Z,20.40
2022-08-07T11:02:33.526Z,20.40
2022-08-07T11:05:13.839Z,20.60
2022-08-07T11:08:11.901Z,20.80
2022-08-07T11:10:55.407Z,21.20
2022-08-07T11:14:46.521Z,21.20
2022-08-07T11:16:52.730Z,21.40
2022-08-07T11:19:53.114Z,21.90
2022-08-07T11:22:58.881Z,21.60
2022-08-07T11:25:48.225Z,21.90
2022-08-07T11:28:57.691Z,21.80
2022-08-07T11:31:35.351Z,21.10
2022-08-07T11:34:24.703Z,20.80
2022-08-07T11:37:38.417Z,20.90
2022-08-07T11:40:49.944Z,20.60
2022-08-07T11:43:54.989Z,20.40
2022-08-07T11:46:48.646Z,20.50
2022-08-07T11:50:11.516Z,20.40
2022-08-07T11:52:29.154Z,20.30
2022-08-07T11:56:25.299Z,20.40
2022-08-07T11:58:36.684Z,20.70
2022-08-07T12:01:59.571Z,20.70
2022-08-07T12:04:46.904Z,20.80
2022-08-07T12:07:27.509Z,20.90
2022-08-07T12:10:10.159Z,20.90
2022-08-07T12:13:11.573Z,21.30
2022-08-07T12:16:06.827Z,21.30
2022-08-07T12:18:57.732Z,21.40
2022-08-07T12:21:55.599Z,21.60
2022-08-07T12:24:38.387Z,22.00
2022-08-07T12:27:16.220Z,21.00
2022-08-07T12:29:59.431Z,20.70
2022-08-07T12:32:50.318Z,20.90
2022-08-07T12:35:20.771Z,21.00
2022-08-07T12:38:11.417Z,21.00
2022-08-07T12:40:47.269Z,21.10
2022-08-07T12:44:02.159Z,21.50
2022-08-07T12:46:34.633Z,21.40
2022-08-07T12:49:10.288Z,21.40
2022-08-07T12:52:18.332Z,21.80
2022-08-07T12:55:18.285Z,22.10
2022-08-07T12:58:01.263Z,21.90
2022-08-07T13:00:53.267Z,22.40
2022-08-07T13:04:05.505Z,22.40
2022-08-07T13:06:54.493Z,22.70
2022-08-07T13:10:28.678Z,23.00
2022-08-07T13:13:48.016Z,23.10
2022-08-07T13:16:38.058Z,22.70
2022-08-07T13:19:21.719Z,23.20
2022-08-07T13:22:27.556Z,23.10
2022-08-07T13:25:09.309Z,22.70
2022-08-07T13:28:11.433Z,22.90
2022-08-07T13:30:43.846Z,22.80
2022-08-07T13:34:30.524Z,23.10
2022-08-07T13:36:26.120Z,23.00
2022-08-07T13:39:02.848Z,22.80
2022-08-07T13:41:47.552Z,22.60
2022-08-07T13:44:26.216Z,22.50
2022-08-07T13:47:00.338Z,22.70
2022-08-07T13:50:34.065Z,22.90
2022-08-07T13:52:32.413Z,22.80
2022-08-07T13:55:26.239Z,22.90
2022-08-07T13:58:27.476Z,22.90
2022-08-07T14:01:10.791Z,23.00
2022-08-07T14:04:05.562Z,22.90
2022-08-07T14:06:34.416Z,23.00
2022-08-07T14:09:04.768Z,22.80
2022-08-07T14:11:42.321Z,23.10
2022-08-07T14:14:58.963Z,23.20
2022-08-07T14:18:12.980Z,22.70
2022-08-07T14:20:43.675Z,22.40
2022-08-07T14:23:31.471Z,22.30
2022-08-07T14:26:11.528Z,22.40
2022-08-07T14:29:02.951Z,22.40
2022-08-07T14:31:43.448Z,22.50
2022-08-07T14:34:29.874Z,22.50
2022-08-07T14:40:17.256Z,22.00
2022-08-07T14:43:01.228Z,21.80
2022-08-07T14:45:46.673Z,21.50
2022-08-07T14:48:21.026Z,21.50
2022-08-07T14:50:54.035Z,21.50
2022-08-07T14:54:08.981Z,21.50
2022-08-07T14:56:14.262Z,21.40
2022-08-07T14:58:54.146Z,21.20
2022-08-07T15:01:42.741Z,20.90
2022-08-07T15:04:21.848Z,21.10
2022-08-07T15:06:53.322Z,21.20
2022-08-07T15:09:59.787Z,21.40
2022-08-07T15:13:06.638Z,21.40
2022-08-07T15:15:21.240Z,21.40
2022-08-07T15:17:58.932Z,21.40
2022-08-07T15:20:55.244Z,21.40
2022-08-07T15:25:14.898Z,21.30
2022-08-07T15:26:22.843Z,21.30
2022-08-07T15:30:06.466Z,21.20
2022-08-07T15:38:04.297Z,21.40
2022-08-07T15:40:35.009Z,21.40
2022-08-07T15:43:33.218Z,21.40
2022-08-07T15:46:31.833Z,21.40
2022-08-07T15:52:02.013Z,20.90
2022-08-07T15:54:40.554Z,21.00
2022-08-07T15:57:27.999Z,20.80
2022-08-07T16:00:06.240Z,20.80
2022-08-07T16:02:46.715Z,20.60
2022-08-07T16:05:23.136Z,20.50
2022-08-07T16:08:31.234Z,20.50
2022-08-07T16:11:25.372Z,20.20
2022-08-07T16:14:11.980Z,19.70
2022-08-07T16:17:01.919Z,19.70
2022-08-07T16:19:59.187Z,19.60
2022-08-07T16:22:33.841Z,19.40
2022-08-07T16:25:52.387Z,19.30
2022-08-07T16:30:06.515Z,19.50
2022-08-07T16:32:33.008Z,19.30
2022-08-07T16:35:50.318Z,19.40
2022-08-07T16:38:58.589Z,19.30
2022-08-07T16:41:41.485Z,19.30
2022-08-07T16:45:14.042Z,19.00
2022-08-07T16:48:13.554Z,18.90
2022-08-07T16:51:21.765Z,18.90
2022-08-07T16:54:08.876Z,18.90
2022-08-07T16:56:53.194Z,18.90
2022-08-07T16:59:45.832Z,18.90
2022-08-07T17:02:52.384Z,19.00
2022-08-07T17:05:07.350Z,18.90
2022-08-07T17:07:57.985Z,19.00
2022-08-07T17:10:39.252Z,18.80
2022-08-07T17:13:41.440Z,18.80
2022-08-07T17:16:56.199Z,18.90
2022-08-07T17:20:02.511Z,18.70
2022-08-07T17:22:55.094Z,18.70
2022-08-07T17:25:51.608Z,18.60
2022-08-07T17:29:04.778Z,18.50
2022-08-07T17:31:44.300Z,18.50
2022-08-07T17:35:32.980Z,18.40
2022-08-07T17:38:06.770Z,18.40
2022-08-07T17:40:54.785Z,18.40
2022-08-07T17:44:01.868Z,18.40
2022-08-07T17:46:34.415Z,18.50
2022-08-07T17:49:23.860Z,18.50
2022-08-07T17:52:02.040Z,18.40
2022-08-07T17:54:53.870Z,18.30
2022-08-07T17:57:59.175Z,18.30
2022-08-07T18:00:34.223Z,18.30
2022-08-07T18:03:20.751Z,18.40
2022-08-07T18:06:06.664Z,18.30
2022-08-07T18:08:54.227Z,18.40
2022-08-07T18:12:11.890Z,18.30
2022-08-07T18:14:50.955Z,18.40
2022-08-07T18:18:46.012Z,18.20
2022-08-07T18:21:08.514Z,18.20
2022-08-07T18:23:58.433Z,18.20
2022-08-07T18:26:57.149Z,18.20
2022-08-07T18:30:05.703Z,18.20
2022-08-07T18:32:54.885Z,18.20
2022-08-07T18:35:57.246Z,18.00
2022-08-07T18:38:57.523Z,18.10
2022-08-07T18:42:12.877Z,18.10
2022-08-07T18:45:44.582Z,18.10
2022-08-07T18:48:02.639Z,18.10
2022-08-07T18:50:49.408Z,18.20
2022-08-07T18:53:42.813Z,18.10
2022-08-07T18:56:32.082Z,18.00
2022-08-07T18:59:47.326Z,17.90
2022-08-07T19:02:42.466Z,17.80
2022-08-07T19:05:25.659Z,18.10
2022-08-07T19:08:18.895Z,18.00
2022-08-07T19:10:59.531Z,17.90
2022-08-07T19:13:45.018Z,18.00
2022-08-07T19:17:01.013Z,18.00
2022-08-07T19:19:38.241Z,18.10
2022-08-07T19:22:30.860Z,18.00
2022-08-07T19:25:05.659Z,18.00
2022-08-07T19:28:56.631Z,18.00
2022-08-07T19:30:55.191Z,18.00
2022-08-07T19:33:33.357Z,17.90
2022-08-07T19:36:04.141Z,18.00
2022-08-07T19:38:52.730Z,17.90
2022-08-07T19:41:38.961Z,17.90
2022-08-07T19:44:21.861Z,17.90
2022-08-07T19:46:57.775Z,17.90
2022-08-07T19:49:57.172Z,17.90
2022-08-07T19:52:18.945Z,17.90
2022-08-07T19:54:55.612Z,17.80
2022-08-07T19:57:59.946Z,17.70
2022-08-07T20:00:29.085Z,17.70
2022-08-07T20:03:03.528Z,17.70
2022-08-07T20:06:00.816Z,17.70
2022-08-07T20:08:30.205Z,17.70
2022-08-07T20:11:34.208Z,17.70
2022-08-07T20:14:13.710Z,17.60
2022-08-07T20:16:54.483Z,17.60
2022-08-07T20:19:28.901Z,17.70
2022-08-07T20:22:17.905Z,17.80
2022-08-07T20:25:06.313Z,17.70
2022-08-07T20:27:47.495Z,17.70
2022-08-07T20:30:22.028Z,17.70
2022-08-07T20:32:54.970Z,17.50
2022-08-07T20:35:34.304Z,17.30
2022-08-07T20:38:07.836Z,17.30
2022-08-07T20:40:59.461Z,17.30
2022-08-07T20:43:33.935Z,17.40
2022-08-07T20:46:27.636Z,17.50
2022-08-07T20:49:54.636Z,17.50
2022-08-07T20:51:50.684Z,17.40
2022-08-07T20:54:30.185Z,17.40
2022-08-07T20:57:04.315Z,17.40
2022-08-07T21:00:08.219Z,17.30
2022-08-07T21:02:53.878Z,17.30
2022-08-07T21:05:51.298Z,17.30
2022-08-07T21:08:38.189Z,17.20
2022-08-07T21:11:17.505Z,17.10
2022-08-07T21:14:30.005Z,17.10
2022-08-07T21:18:00.802Z,17.10
2022-08-07T21:19:51.406Z,16.90
2022-08-07T21:22:31.356Z,16.80
2022-08-07T21:25:28.870Z,16.80
2022-08-07T21:28:05.831Z,16.70
2022-08-07T21:30:54.482Z,16.70
2022-08-07T21:33:24.150Z,16.60
2022-08-07T21:36:12.073Z,16.70
2022-08-07T21:39:46.153Z,16.70
2022-08-07T21:42:42.288Z,16.80
2022-08-07T21:46:08.583Z,16.80
2022-08-07T21:48:27.853Z,16.80
2022-08-07T21:51:20.374Z,16.80
2022-08-07T21:53:58.234Z,16.80
2022-08-07T21:56:49.038Z,16.70
2022-08-07T22:00:02.816Z,16.70
2022-08-07T22:02:48.617Z,16.60
2022-08-07T22:05:45.862Z,16.60
2022-08-07T22:08:10.677Z,16.50
2022-08-07T22:10:42.167Z,16.60
2022-08-07T22:13:14.380Z,16.60
2022-08-07T22:16:42.021Z,16.60
2022-08-07T22:19:29.224Z,16.60
2022-08-07T22:22:29.008Z,16.60
2022-08-07T22:25:11.223Z,16.50
2022-08-07T22:28:29.476Z,16.40
2022-08-07T22:30:57.138Z,16.30
2022-08-07T22:33:52.463Z,16.30
2022-08-07T22:36:55.179Z,16.30
2022-08-07T22:39:53.096Z,16.30
2022-08-07T22:42:30.356Z,16.40
2022-08-07T22:45:02.337Z,16.50
2022-08-07T22:48:03.681Z,16.60
2022-08-07T22:51:01.168Z,16.70
2022-08-07T22:54:07.801Z,16.60
2022-08-07T22:56:53.100Z,16.50
2022-08-07T22:59:49.712Z,16.40
2022-08-07T23:02:17.570Z,16.30
2022-08-07T23:04:56.793Z,16.30
2022-08-07T23:07:44.244Z,16.30
2022-08-07T23:10:43.350Z,16.40
2022-08-07T23:13:29.421Z,16.40
2022-08-07T23:17:02.722Z,16.30
2022-08-07T23:20:04.032Z,16.30
2022-08-07T23:22:39.791Z,16.30
2022-08-07T23:25:35.029Z,16.30
2022-08-07T23:28:28.575Z,16.30
2022-08-07T23:31:42.758Z,16.20
2022-08-07T23:34:34.106Z,16.30
2022-08-07T23:37:33.726Z,16.30
2022-08-07T23:40:20.805Z,16.30
2022-08-07T23:43:25.780Z,16.40
2022-08-07T23:46:27.360Z,16.30
2022-08-07T23:49:15.869Z,16.30
2022-08-07T23:53:00.668Z,16.30
2022-08-07T23:55:04.666Z,16.30
2022-08-07T23:57:47.555Z,16.40
